sensor_id;sensor_type;location;lat;lon;timestamp;P1;durP1;ratioP1;P2;durP2;ratioP2
70132;SDS011;57495;49.922;7.966;2024-03-07T00:01:49;28.08;;;14.18;;
70132;SDS011;57495;49.922;7.966;2024-03-07T00:03:50;27.98;;;15.18;;
70132;SDS011;57495;49.922;7.966;2024-03-07T00:05:52;27.88;;;14.85;;
70132;SDS011;57495;49.922;7.966;2024-03-07T00:07:53;32.38;;;15.63;;
70132;SDS011;57495;49.922;7.966;2024-03-07T00:09:55;30.50;;;15.30;;
70132;SDS011;57495;49.922;7.966;2024-03-07T00:11:57;25.90;;;13.80;;
70132;SDS011;57495;49.922;7.966;2024-03-07T00:13:59;31.05;;;15.20;;
70132;SDS011;57495;49.922;7.966;2024-03-07T00:16:00;31.95;;;14.82;;
70132;SDS011;57495;49.922;7.966;2024-03-07T00:18:04;28.05;;;14.40;;
70132;SDS011;57495;49.922;7.966;2024-03-07T00:20:06;26.42;;;14.63;;
70132;SDS011;57495;49.922;7.966;2024-03-07T00:22:14;28.60;;;14.43;;
70132;SDS011;57495;49.922;7.966;2024-03-07T00:24:16;23.95;;;14.40;;
70132;SDS011;57495;49.922;7.966;2024-03-07T00:26:17;28.75;;;15.55;;
70132;SDS011;57495;49.922;7.966;2024-03-07T00:28:19;31.92;;;15.30;;
70132;SDS011;57495;49.922;7.966;2024-03-07T00:30:20;30.45;;;16.65;;
70132;SDS011;57495;49.922;7.966;2024-03-07T00:32:22;29.20;;;14.82;;
70132;SDS011;57495;49.922;7.966;2024-03-07T00:34:25;28.73;;;15.35;;
70132;SDS011;57495;49.922;7.966;2024-03-07T00:36:26;27.77;;;14.77;;
70132;SDS011;57495;49.922;7.966;2024-03-07T00:38:28;28.40;;;15.25;;
70132;SDS011;57495;49.922;7.966;2024-03-07T00:40:29;29.88;;;15.63;;
70132;SDS011;57495;49.922;7.966;2024-03-07T00:42:30;32.22;;;15.88;;
70132;SDS011;57495;49.922;7.966;2024-03-07T00:44:31;32.33;;;15.77;;
70132;SDS011;57495;49.922;7.966;2024-03-07T00:46:32;30.55;;;15.13;;
70132;SDS011;57495;49.922;7.966;2024-03-07T00:48:34;27.58;;;14.95;;
70132;SDS011;57495;49.922;7.966;2024-03-07T00:50:36;29.47;;;15.60;;
70132;SDS011;57495;49.922;7.966;2024-03-07T00:52:38;29.40;;;15.27;;
70132;SDS011;57495;49.922;7.966;2024-03-07T00:54:39;29.38;;;15.20;;
70132;SDS011;57495;49.922;7.966;2024-03-07T00:56:41;31.40;;;15.70;;
70132;SDS011;57495;49.922;7.966;2024-03-07T00:58:42;31.75;;;16.73;;
70132;SDS011;57495;49.922;7.966;2024-03-07T01:00:44;31.37;;;16.03;;
70132;SDS011;57495;49.922;7.966;2024-03-07T01:02:45;29.55;;;15.35;;
70132;SDS011;57495;49.922;7.966;2024-03-07T01:04:46;28.20;;;16.35;;
70132;SDS011;57495;49.922;7.966;2024-03-07T01:06:50;29.98;;;15.57;;
70132;SDS011;57495;49.922;7.966;2024-03-07T01:08:51;29.45;;;16.27;;
70132;SDS011;57495;49.922;7.966;2024-03-07T01:10:53;30.73;;;15.80;;
70132;SDS011;57495;49.922;7.966;2024-03-07T01:12:54;29.52;;;15.50;;
70132;SDS011;57495;49.922;7.966;2024-03-07T01:15:00;32.15;;;16.77;;
70132;SDS011;57495;49.922;7.966;2024-03-07T01:17:04;33.83;;;15.82;;
70132;SDS011;57495;49.922;7.966;2024-03-07T01:19:07;30.65;;;16.38;;
70132;SDS011;57495;49.922;7.966;2024-03-07T01:21:09;28.70;;;15.63;;
70132;SDS011;57495;49.922;7.966;2024-03-07T01:23:11;31.05;;;15.07;;
70132;SDS011;57495;49.922;7.966;2024-03-07T01:25:12;30.88;;;15.57;;
70132;SDS011;57495;49.922;7.966;2024-03-07T01:27:14;29.13;;;15.00;;
70132;SDS011;57495;49.922;7.966;2024-03-07T01:29:15;32.25;;;16.23;;
70132;SDS011;57495;49.922;7.966;2024-03-07T01:31:16;29.13;;;15.43;;
70132;SDS011;57495;49.922;7.966;2024-03-07T01:33:17;29.13;;;16.00;;
70132;SDS011;57495;49.922;7.966;2024-03-07T01:35:19;31.60;;;16.95;;
70132;SDS011;57495;49.922;7.966;2024-03-07T01:37:20;29.83;;;15.75;;
70132;SDS011;57495;49.922;7.966;2024-03-07T01:39:23;28.55;;;16.45;;
70132;SDS011;57495;49.922;7.966;2024-03-07T01:41:25;29.07;;;15.83;;
70132;SDS011;57495;49.922;7.966;2024-03-07T01:43:26;31.65;;;15.38;;
70132;SDS011;57495;49.922;7.966;2024-03-07T01:45:26;31.93;;;16.53;;
70132;SDS011;57495;49.922;7.966;2024-03-07T01:47:28;29.80;;;15.23;;
70132;SDS011;57495;49.922;7.966;2024-03-07T01:49:28;33.13;;;16.15;;
70132;SDS011;57495;49.922;7.966;2024-03-07T01:51:30;31.53;;;15.50;;
70132;SDS011;57495;49.922;7.966;2024-03-07T01:53:32;31.02;;;16.33;;
70132;SDS011;57495;49.922;7.966;2024-03-07T01:55:36;32.80;;;16.63;;
70132;SDS011;57495;49.922;7.966;2024-03-07T01:57:38;28.60;;;16.40;;
70132;SDS011;57495;49.922;7.966;2024-03-07T01:59:40;32.45;;;16.25;;
70132;SDS011;57495;49.922;7.966;2024-03-07T02:01:40;29.87;;;16.50;;
70132;SDS011;57495;49.922;7.966;2024-03-07T02:03:43;30.65;;;15.93;;
70132;SDS011;57495;49.922;7.966;2024-03-07T02:05:44;28.83;;;16.02;;
70132;SDS011;57495;49.922;7.966;2024-03-07T02:07:45;33.05;;;15.60;;
70132;SDS011;57495;49.922;7.966;2024-03-07T02:09:46;29.83;;;15.85;;
70132;SDS011;57495;49.922;7.966;2024-03-07T02:11:49;30.27;;;15.53;;
70132;SDS011;57495;49.922;7.966;2024-03-07T02:13:50;32.95;;;16.55;;
70132;SDS011;57495;49.922;7.966;2024-03-07T02:15:52;28.45;;;16.65;;
70132;SDS011;57495;49.922;7.966;2024-03-07T02:17:53;33.33;;;16.90;;
70132;SDS011;57495;49.922;7.966;2024-03-07T02:19:54;29.52;;;15.63;;
70132;SDS011;57495;49.922;7.966;2024-03-07T02:21:57;31.60;;;16.85;;
70132;SDS011;57495;49.922;7.966;2024-03-07T02:23:59;34.03;;;16.33;;
70132;SDS011;57495;49.922;7.966;2024-03-07T02:26:00;34.33;;;17.83;;
70132;SDS011;57495;49.922;7.966;2024-03-07T02:28:02;33.07;;;17.63;;
70132;SDS011;57495;49.922;7.966;2024-03-07T02:30:04;31.52;;;16.13;;
70132;SDS011;57495;49.922;7.966;2024-03-07T02:32:08;30.50;;;17.25;;
70132;SDS011;57495;49.922;7.966;2024-03-07T02:34:11;34.20;;;17.67;;
70132;SDS011;57495;49.922;7.966;2024-03-07T02:36:13;31.92;;;16.60;;
70132;SDS011;57495;49.922;7.966;2024-03-07T02:38:15;32.50;;;16.07;;
70132;SDS011;57495;49.922;7.966;2024-03-07T02:40:17;31.00;;;16.98;;
70132;SDS011;57495;49.922;7.966;2024-03-07T02:42:19;38.33;;;18.00;;
70132;SDS011;57495;49.922;7.966;2024-03-07T02:44:19;31.50;;;16.70;;
70132;SDS011;57495;49.922;7.966;2024-03-07T02:46:21;35.55;;;17.40;;
70132;SDS011;57495;49.922;7.966;2024-03-07T02:48:22;32.55;;;17.45;;
70132;SDS011;57495;49.922;7.966;2024-03-07T02:50:23;35.53;;;17.98;;
70132;SDS011;57495;49.922;7.966;2024-03-07T02:52:25;33.15;;;18.38;;
70132;SDS011;57495;49.922;7.966;2024-03-07T02:54:28;32.08;;;16.58;;
70132;SDS011;57495;49.922;7.966;2024-03-07T02:56:29;30.73;;;16.98;;
70132;SDS011;57495;49.922;7.966;2024-03-07T02:58:30;31.30;;;16.73;;
70132;SDS011;57495;49.922;7.966;2024-03-07T03:00:32;33.03;;;17.00;;
70132;SDS011;57495;49.922;7.966;2024-03-07T03:02:32;33.83;;;18.13;;
70132;SDS011;57495;49.922;7.966;2024-03-07T03:04:33;31.75;;;16.65;;
70132;SDS011;57495;49.922;7.966;2024-03-07T03:06:35;34.67;;;18.90;;
70132;SDS011;57495;49.922;7.966;2024-03-07T03:08:36;33.08;;;17.65;;
70132;SDS011;57495;49.922;7.966;2024-03-07T03:10:40;35.28;;;18.38;;
70132;SDS011;57495;49.922;7.966;2024-03-07T03:12:41;34.38;;;17.80;;
70132;SDS011;57495;49.922;7.966;2024-03-07T03:14:42;35.55;;;18.88;;
70132;SDS011;57495;49.922;7.966;2024-03-07T03:16:43;35.33;;;18.20;;
70132;SDS011;57495;49.922;7.966;2024-03-07T03:18:44;33.05;;;17.30;;
70132;SDS011;57495;49.922;7.966;2024-03-07T03:20:45;31.13;;;16.27;;
70132;SDS011;57495;49.922;7.966;2024-03-07T03:22:48;32.93;;;17.77;;
70132;SDS011;57495;49.922;7.966;2024-03-07T03:24:50;33.13;;;17.35;;
70132;SDS011;57495;49.922;7.966;2024-03-07T03:26:56;31.52;;;16.48;;
70132;SDS011;57495;49.922;7.966;2024-03-07T03:28:58;32.88;;;16.88;;
70132;SDS011;57495;49.922;7.966;2024-03-07T03:30:59;35.53;;;17.15;;
70132;SDS011;57495;49.922;7.966;2024-03-07T03:33:01;30.87;;;16.17;;
70132;SDS011;57495;49.922;7.966;2024-03-07T03:35:01;33.50;;;16.77;;
70132;SDS011;57495;49.922;7.966;2024-03-07T03:37:03;32.60;;;17.60;;
70132;SDS011;57495;49.922;7.966;2024-03-07T03:39:05;31.98;;;16.02;;
70132;SDS011;57495;49.922;7.966;2024-03-07T03:41:07;33.97;;;17.63;;
70132;SDS011;57495;49.922;7.966;2024-03-07T03:43:09;33.75;;;16.80;;
70132;SDS011;57495;49.922;7.966;2024-03-07T03:45:11;31.65;;;17.08;;
70132;SDS011;57495;49.922;7.966;2024-03-07T03:47:14;34.30;;;17.90;;
70132;SDS011;57495;49.922;7.966;2024-03-07T03:49:16;32.38;;;17.40;;
70132;SDS011;57495;49.922;7.966;2024-03-07T03:51:17;33.90;;;17.95;;
70132;SDS011;57495;49.922;7.966;2024-03-07T03:53:20;35.38;;;17.02;;
70132;SDS011;57495;49.922;7.966;2024-03-07T03:55:22;33.92;;;17.60;;
70132;SDS011;57495;49.922;7.966;2024-03-07T03:57:23;31.53;;;16.20;;
70132;SDS011;57495;49.922;7.966;2024-03-07T03:59:26;32.35;;;16.17;;
70132;SDS011;57495;49.922;7.966;2024-03-07T04:01:28;29.73;;;16.40;;
70132;SDS011;57495;49.922;7.966;2024-03-07T04:03:30;33.58;;;16.85;;
70132;SDS011;57495;49.922;7.966;2024-03-07T04:05:30;33.27;;;17.60;;
70132;SDS011;57495;49.922;7.966;2024-03-07T04:07:32;33.50;;;16.52;;
70132;SDS011;57495;49.922;7.966;2024-03-07T04:09:32;32.57;;;16.83;;
70132;SDS011;57495;49.922;7.966;2024-03-07T04:11:34;34.85;;;17.90;;
70132;SDS011;57495;49.922;7.966;2024-03-07T04:13:36;37.55;;;18.15;;
70132;SDS011;57495;49.922;7.966;2024-03-07T04:15:39;32.83;;;17.67;;
70132;SDS011;57495;49.922;7.966;2024-03-07T04:17:41;31.75;;;16.23;;
70132;SDS011;57495;49.922;7.966;2024-03-07T04:19:42;34.85;;;17.27;;
70132;SDS011;57495;49.922;7.966;2024-03-07T04:21:43;34.67;;;16.63;;
70132;SDS011;57495;49.922;7.966;2024-03-07T04:23:44;30.88;;;16.55;;
70132;SDS011;57495;49.922;7.966;2024-03-07T04:25:46;31.35;;;15.80;;
70132;SDS011;57495;49.922;7.966;2024-03-07T04:27:47;33.45;;;16.88;;
70132;SDS011;57495;49.922;7.966;2024-03-07T04:29:49;31.73;;;16.90;;
70132;SDS011;57495;49.922;7.966;2024-03-07T04:31:52;33.97;;;16.90;;
70132;SDS011;57495;49.922;7.966;2024-03-07T04:33:53;32.15;;;16.42;;
70132;SDS011;57495;49.922;7.966;2024-03-07T04:35:55;33.20;;;15.98;;
70132;SDS011;57495;49.922;7.966;2024-03-07T04:37:57;30.98;;;16.48;;
70132;SDS011;57495;49.922;7.966;2024-03-07T04:39:58;34.80;;;17.52;;
70132;SDS011;57495;49.922;7.966;2024-03-07T04:41:59;28.83;;;15.70;;
70132;SDS011;57495;49.922;7.966;2024-03-07T04:44:01;32.25;;;16.67;;
70132;SDS011;57495;49.922;7.966;2024-03-07T04:46:03;30.33;;;15.57;;
70132;SDS011;57495;49.922;7.966;2024-03-07T04:48:08;33.70;;;16.42;;
70132;SDS011;57495;49.922;7.966;2024-03-07T04:50:09;31.92;;;16.70;;
70132;SDS011;57495;49.922;7.966;2024-03-07T04:52:11;35.17;;;16.20;;
70132;SDS011;57495;49.922;7.966;2024-03-07T04:54:13;30.70;;;15.25;;
70132;SDS011;57495;49.922;7.966;2024-03-07T04:56:13;30.95;;;15.95;;
70132;SDS011;57495;49.922;7.966;2024-03-07T04:58:15;30.08;;;15.68;;
70132;SDS011;57495;49.922;7.966;2024-03-07T05:00:16;29.75;;;15.75;;
70132;SDS011;57495;49.922;7.966;2024-03-07T05:02:19;32.10;;;15.73;;
70132;SDS011;57495;49.922;7.966;2024-03-07T05:04:22;28.52;;;15.35;;
70132;SDS011;57495;49.922;7.966;2024-03-07T05:06:24;32.10;;;16.42;;
70132;SDS011;57495;49.922;7.966;2024-03-07T05:08:26;34.28;;;15.73;;
70132;SDS011;57495;49.922;7.966;2024-03-07T05:10:27;30.30;;;15.27;;
70132;SDS011;57495;49.922;7.966;2024-03-07T05:12:29;32.67;;;15.38;;
70132;SDS011;57495;49.922;7.966;2024-03-07T05:14:31;31.77;;;15.07;;
70132;SDS011;57495;49.922;7.966;2024-03-07T05:16:31;27.17;;;14.98;;
70132;SDS011;57495;49.922;7.966;2024-03-07T05:18:33;31.20;;;15.35;;
70132;SDS011;57495;49.922;7.966;2024-03-07T05:20:34;27.45;;;14.50;;
70132;SDS011;57495;49.922;7.966;2024-03-07T05:22:36;27.30;;;14.60;;
70132;SDS011;57495;49.922;7.966;2024-03-07T05:24:40;29.20;;;14.55;;
70132;SDS011;57495;49.922;7.966;2024-03-07T05:26:42;26.77;;;14.48;;
70132;SDS011;57495;49.922;7.966;2024-03-07T05:28:45;34.10;;;14.30;;
70132;SDS011;57495;49.922;7.966;2024-03-07T05:30:46;26.40;;;13.32;;
70132;SDS011;57495;49.922;7.966;2024-03-07T05:32:49;31.23;;;13.83;;
70132;SDS011;57495;49.922;7.966;2024-03-07T05:34:50;30.80;;;15.50;;
70132;SDS011;57495;49.922;7.966;2024-03-07T05:36:54;30.00;;;15.88;;
70132;SDS011;57495;49.922;7.966;2024-03-07T05:38:56;31.25;;;16.27;;
70132;SDS011;57495;49.922;7.966;2024-03-07T05:40:56;29.90;;;16.37;;
70132;SDS011;57495;49.922;7.966;2024-03-07T05:42:58;33.75;;;16.70;;
70132;SDS011;57495;49.922;7.966;2024-03-07T05:44:59;34.00;;;16.05;;
70132;SDS011;57495;49.922;7.966;2024-03-07T05:47:01;33.20;;;16.85;;
70132;SDS011;57495;49.922;7.966;2024-03-07T05:49:02;29.57;;;14.40;;
70132;SDS011;57495;49.922;7.966;2024-03-07T05:51:04;30.75;;;14.50;;
70132;SDS011;57495;49.922;7.966;2024-03-07T05:53:06;29.25;;;14.85;;
70132;SDS011;57495;49.922;7.966;2024-03-07T05:55:08;28.38;;;14.50;;
70132;SDS011;57495;49.922;7.966;2024-03-07T05:57:11;26.20;;;13.68;;
70132;SDS011;57495;49.922;7.966;2024-03-07T05:59:13;24.40;;;12.30;;
70132;SDS011;57495;49.922;7.966;2024-03-07T06:01:14;22.55;;;11.35;;
70132;SDS011;57495;49.922;7.966;2024-03-07T06:03:16;24.50;;;12.40;;
70132;SDS011;57495;49.922;7.966;2024-03-07T06:05:19;24.27;;;11.85;;
70132;SDS011;57495;49.922;7.966;2024-03-07T06:07:21;25.42;;;12.23;;
70132;SDS011;57495;49.922;7.966;2024-03-07T06:09:23;22.43;;;11.70;;
70132;SDS011;57495;49.922;7.966;2024-03-07T06:11:26;26.85;;;11.70;;
70132;SDS011;57495;49.922;7.966;2024-03-07T06:13:28;24.05;;;12.10;;
70132;SDS011;57495;49.922;7.966;2024-03-07T06:15:29;24.10;;;12.05;;
70132;SDS011;57495;49.922;7.966;2024-03-07T06:17:29;23.37;;;13.17;;
70132;SDS011;57495;49.922;7.966;2024-03-07T06:19:31;23.80;;;11.52;;
70132;SDS011;57495;49.922;7.966;2024-03-07T06:21:34;23.27;;;12.77;;
70132;SDS011;57495;49.922;7.966;2024-03-07T06:23:36;24.63;;;12.33;;
70132;SDS011;57495;49.922;7.966;2024-03-07T06:25:38;23.20;;;11.48;;
70132;SDS011;57495;49.922;7.966;2024-03-07T06:27:47;25.20;;;11.93;;
70132;SDS011;57495;49.922;7.966;2024-03-07T06:29:49;21.27;;;11.20;;
70132;SDS011;57495;49.922;7.966;2024-03-07T06:31:51;21.85;;;12.02;;
70132;SDS011;57495;49.922;7.966;2024-03-07T06:33:53;23.27;;;11.60;;
70132;SDS011;57495;49.922;7.966;2024-03-07T06:35:55;22.80;;;11.27;;
70132;SDS011;57495;49.922;7.966;2024-03-07T06:37:56;22.17;;;11.63;;
70132;SDS011;57495;49.922;7.966;2024-03-07T06:39:58;21.92;;;10.88;;
70132;SDS011;57495;49.922;7.966;2024-03-07T06:42:01;22.55;;;12.45;;
70132;SDS011;57495;49.922;7.966;2024-03-07T06:44:10;22.02;;;12.38;;
70132;SDS011;57495;49.922;7.966;2024-03-07T06:46:11;21.63;;;11.30;;
70132;SDS011;57495;49.922;7.966;2024-03-07T06:48:12;21.90;;;12.55;;
70132;SDS011;57495;49.922;7.966;2024-03-07T06:50:14;22.52;;;11.45;;
70132;SDS011;57495;49.922;7.966;2024-03-07T06:52:19;24.58;;;11.80;;
70132;SDS011;57495;49.922;7.966;2024-03-07T06:54:21;20.65;;;11.65;;
70132;SDS011;57495;49.922;7.966;2024-03-07T06:56:22;23.30;;;11.98;;
70132;SDS011;57495;49.922;7.966;2024-03-07T06:58:24;22.35;;;12.20;;
70132;SDS011;57495;49.922;7.966;2024-03-07T07:00:27;21.80;;;12.30;;
70132;SDS011;57495;49.922;7.966;2024-03-07T07:02:28;23.65;;;12.82;;
70132;SDS011;57495;49.922;7.966;2024-03-07T07:04:31;21.75;;;11.57;;
70132;SDS011;57495;49.922;7.966;2024-03-07T07:06:41;20.55;;;11.82;;
70132;SDS011;57495;49.922;7.966;2024-03-07T07:08:43;21.80;;;11.57;;
70132;SDS011;57495;49.922;7.966;2024-03-07T07:10:45;20.85;;;12.13;;
70132;SDS011;57495;49.922;7.966;2024-03-07T07:12:47;21.70;;;11.80;;
70132;SDS011;57495;49.922;7.966;2024-03-07T07:14:49;22.45;;;11.88;;
70132;SDS011;57495;49.922;7.966;2024-03-07T07:16:52;23.15;;;12.32;;
70132;SDS011;57495;49.922;7.966;2024-03-07T07:18:53;22.17;;;12.45;;
70132;SDS011;57495;49.922;7.966;2024-03-07T07:20:55;20.88;;;11.98;;
70132;SDS011;57495;49.922;7.966;2024-03-07T07:22:58;21.30;;;10.70;;
70132;SDS011;57495;49.922;7.966;2024-03-07T07:25:00;21.25;;;12.05;;
70132;SDS011;57495;49.922;7.966;2024-03-07T07:27:04;22.60;;;12.35;;
70132;SDS011;57495;49.922;7.966;2024-03-07T07:29:07;21.52;;;12.38;;
70132;SDS011;57495;49.922;7.966;2024-03-07T07:31:08;23.52;;;11.50;;
70132;SDS011;57495;49.922;7.966;2024-03-07T07:33:11;22.92;;;11.98;;
70132;SDS011;57495;49.922;7.966;2024-03-07T07:35:13;24.63;;;13.10;;
70132;SDS011;57495;49.922;7.966;2024-03-07T07:37:15;24.67;;;12.45;;
70132;SDS011;57495;49.922;7.966;2024-03-07T07:39:16;23.67;;;12.57;;
70132;SDS011;57495;49.922;7.966;2024-03-07T07:41:18;25.63;;;12.82;;
70132;SDS011;57495;49.922;7.966;2024-03-07T07:43:19;22.75;;;12.95;;
70132;SDS011;57495;49.922;7.966;2024-03-07T07:45:21;23.25;;;12.00;;
70132;SDS011;57495;49.922;7.966;2024-03-07T07:47:22;24.02;;;11.57;;
70132;SDS011;57495;49.922;7.966;2024-03-07T07:49:25;23.20;;;12.38;;
70132;SDS011;57495;49.922;7.966;2024-03-07T07:51:26;24.73;;;12.75;;
70132;SDS011;57495;49.922;7.966;2024-03-07T07:53:28;24.85;;;12.52;;
70132;SDS011;57495;49.922;7.966;2024-03-07T07:55:29;23.75;;;12.35;;
70132;SDS011;57495;49.922;7.966;2024-03-07T07:57:31;23.55;;;12.57;;
70132;SDS011;57495;49.922;7.966;2024-03-07T07:59:31;24.15;;;12.77;;
70132;SDS011;57495;49.922;7.966;2024-03-07T08:01:32;24.58;;;12.88;;
70132;SDS011;57495;49.922;7.966;2024-03-07T08:03:34;22.13;;;11.98;;
70132;SDS011;57495;49.922;7.966;2024-03-07T08:05:38;21.88;;;11.90;;
70132;SDS011;57495;49.922;7.966;2024-03-07T08:07:41;19.50;;;10.77;;
70132;SDS011;57495;49.922;7.966;2024-03-07T08:09:41;23.97;;;12.40;;
70132;SDS011;57495;49.922;7.966;2024-03-07T08:11:43;21.60;;;12.05;;
70132;SDS011;57495;49.922;7.966;2024-03-07T08:13:45;26.00;;;12.00;;
70132;SDS011;57495;49.922;7.966;2024-03-07T08:15:50;22.77;;;11.93;;
70132;SDS011;57495;49.922;7.966;2024-03-07T08:17:54;20.65;;;11.75;;
70132;SDS011;57495;49.922;7.966;2024-03-07T08:19:55;24.63;;;11.98;;
70132;SDS011;57495;49.922;7.966;2024-03-07T08:21:57;21.30;;;11.63;;
70132;SDS011;57495;49.922;7.966;2024-03-07T08:23:59;20.13;;;11.73;;
70132;SDS011;57495;49.922;7.966;2024-03-07T08:26:03;22.05;;;12.05;;
70132;SDS011;57495;49.922;7.966;2024-03-07T08:28:05;22.33;;;12.25;;
70132;SDS011;57495;49.922;7.966;2024-03-07T08:30:07;22.88;;;12.25;;
70132;SDS011;57495;49.922;7.966;2024-03-07T08:32:12;23.27;;;11.27;;
70132;SDS011;57495;49.922;7.966;2024-03-07T08:34:14;20.30;;;11.13;;
70132;SDS011;57495;49.922;7.966;2024-03-07T08:36:15;23.75;;;12.23;;
70132;SDS011;57495;49.922;7.966;2024-03-07T08:38:18;22.17;;;11.60;;
70132;SDS011;57495;49.922;7.966;2024-03-07T08:40:20;21.50;;;12.45;;
70132;SDS011;57495;49.922;7.966;2024-03-07T08:42:22;22.48;;;12.25;;
70132;SDS011;57495;49.922;7.966;2024-03-07T08:44:23;23.13;;;12.07;;
70132;SDS011;57495;49.922;7.966;2024-03-07T08:46:24;21.75;;;11.80;;
70132;SDS011;57495;49.922;7.966;2024-03-07T08:48:27;22.20;;;11.40;;
70132;SDS011;57495;49.922;7.966;2024-03-07T08:50:29;23.63;;;12.52;;
70132;SDS011;57495;49.922;7.966;2024-03-07T08:52:30;21.60;;;11.32;;
70132;SDS011;57495;49.922;7.966;2024-03-07T08:54:33;21.25;;;11.73;;
70132;SDS011;57495;49.922;7.966;2024-03-07T08:56:34;23.08;;;11.43;;
70132;SDS011;57495;49.922;7.966;2024-03-07T08:58:36;19.23;;;10.32;;
70132;SDS011;57495;49.922;7.966;2024-03-07T09:00:37;21.17;;;10.90;;
70132;SDS011;57495;49.922;7.966;2024-03-07T09:02:39;20.85;;;10.77;;
70132;SDS011;57495;49.922;7.966;2024-03-07T09:04:39;19.70;;;10.30;;
70132;SDS011;57495;49.922;7.966;2024-03-07T09:06:40;17.60;;;10.13;;
70132;SDS011;57495;49.922;7.966;2024-03-07T09:08:42;18.15;;;10.00;;
70132;SDS011;57495;49.922;7.966;2024-03-07T09:10:45;17.33;;;9.45;;
70132;SDS011;57495;49.922;7.966;2024-03-07T09:12:48;17.60;;;8.80;;
70132;SDS011;57495;49.922;7.966;2024-03-07T09:14:50;17.92;;;9.85;;
70132;SDS011;57495;49.922;7.966;2024-03-07T09:16:52;18.30;;;9.07;;
70132;SDS011;57495;49.922;7.966;2024-03-07T09:18:53;17.83;;;9.20;;
70132;SDS011;57495;49.922;7.966;2024-03-07T09:20:55;17.48;;;9.70;;
70132;SDS011;57495;49.922;7.966;2024-03-07T09:22:56;18.60;;;9.70;;
70132;SDS011;57495;49.922;7.966;2024-03-07T09:25:00;18.45;;;9.75;;
70132;SDS011;57495;49.922;7.966;2024-03-07T09:27:03;18.73;;;10.00;;
70132;SDS011;57495;49.922;7.966;2024-03-07T09:29:05;21.80;;;10.45;;
70132;SDS011;57495;49.922;7.966;2024-03-07T09:31:07;17.73;;;9.93;;
70132;SDS011;57495;49.922;7.966;2024-03-07T09:33:09;18.60;;;10.38;;
70132;SDS011;57495;49.922;7.966;2024-03-07T09:35:11;19.40;;;10.60;;
70132;SDS011;57495;49.922;7.966;2024-03-07T09:37:13;19.20;;;10.00;;
70132;SDS011;57495;49.922;7.966;2024-03-07T09:39:15;19.80;;;11.13;;
70132;SDS011;57495;49.922;7.966;2024-03-07T09:41:16;18.23;;;10.77;;
70132;SDS011;57495;49.922;7.966;2024-03-07T09:43:19;18.83;;;9.98;;
70132;SDS011;57495;49.922;7.966;2024-03-07T09:45:26;17.58;;;9.95;;
70132;SDS011;57495;49.922;7.966;2024-03-07T09:47:30;16.13;;;9.90;;
70132;SDS011;57495;49.922;7.966;2024-03-07T09:49:32;20.80;;;11.10;;
70132;SDS011;57495;49.922;7.966;2024-03-07T09:51:35;21.17;;;10.95;;
70132;SDS011;57495;49.922;7.966;2024-03-07T09:53:37;18.17;;;11.05;;
70132;SDS011;57495;49.922;7.966;2024-03-07T09:55:39;18.02;;;11.25;;
70132;SDS011;57495;49.922;7.966;2024-03-07T09:57:40;26.77;;;11.27;;
70132;SDS011;57495;49.922;7.966;2024-03-07T09:59:44;20.42;;;11.05;;
70132;SDS011;57495;49.922;7.966;2024-03-07T10:01:47;18.67;;;10.82;;
70132;SDS011;57495;49.922;7.966;2024-03-07T10:03:52;18.67;;;10.43;;
70132;SDS011;57495;49.922;7.966;2024-03-07T10:05:59;18.50;;;11.25;;
70132;SDS011;57495;49.922;7.966;2024-03-07T10:08:01;19.30;;;10.83;;
70132;SDS011;57495;49.922;7.966;2024-03-07T10:10:02;20.55;;;11.52;;
70132;SDS011;57495;49.922;7.966;2024-03-07T10:12:10;18.45;;;10.25;;
70132;SDS011;57495;49.922;7.966;2024-03-07T10:14:12;23.20;;;11.57;;
70132;SDS011;57495;49.922;7.966;2024-03-07T10:16:16;19.83;;;12.27;;
70132;SDS011;57495;49.922;7.966;2024-03-07T10:18:18;22.97;;;12.27;;
70132;SDS011;57495;49.922;7.966;2024-03-07T10:20:22;21.30;;;11.77;;
70132;SDS011;57495;49.922;7.966;2024-03-07T10:22:24;20.80;;;11.43;;
70132;SDS011;57495;49.922;7.966;2024-03-07T10:24:24;22.47;;;12.27;;
70132;SDS011;57495;49.922;7.966;2024-03-07T10:26:26;24.48;;;13.02;;
70132;SDS011;57495;49.922;7.966;2024-03-07T10:28:28;22.75;;;12.63;;
70132;SDS011;57495;49.922;7.966;2024-03-07T10:30:31;20.88;;;12.60;;
70132;SDS011;57495;49.922;7.966;2024-03-07T10:32:42;22.70;;;12.15;;
70132;SDS011;57495;49.922;7.966;2024-03-07T10:34:43;23.92;;;13.68;;
70132;SDS011;57495;49.922;7.966;2024-03-07T10:36:46;21.70;;;12.00;;
70132;SDS011;57495;49.922;7.966;2024-03-07T10:38:47;19.75;;;10.55;;
70132;SDS011;57495;49.922;7.966;2024-03-07T10:40:50;23.08;;;12.27;;
70132;SDS011;57495;49.922;7.966;2024-03-07T10:42:55;22.10;;;11.88;;
70132;SDS011;57495;49.922;7.966;2024-03-07T10:44:59;22.63;;;12.82;;
70132;SDS011;57495;49.922;7.966;2024-03-07T10:47:05;22.48;;;12.95;;
70132;SDS011;57495;49.922;7.966;2024-03-07T10:49:09;22.75;;;12.82;;
70132;SDS011;57495;49.922;7.966;2024-03-07T10:51:18;22.30;;;12.15;;
70132;SDS011;57495;49.922;7.966;2024-03-07T10:53:29;21.48;;;11.70;;
70132;SDS011;57495;49.922;7.966;2024-03-07T10:55:34;22.90;;;12.63;;
70132;SDS011;57495;49.922;7.966;2024-03-07T10:57:41;25.02;;;12.02;;
70132;SDS011;57495;49.922;7.966;2024-03-07T10:59:50;21.02;;;12.07;;
70132;SDS011;57495;49.922;7.966;2024-03-07T11:01:59;22.48;;;12.10;;
70132;SDS011;57495;49.922;7.966;2024-03-07T11:04:07;23.00;;;12.10;;
70132;SDS011;57495;49.922;7.966;2024-03-07T11:06:13;20.35;;;11.43;;
70132;SDS011;57495;49.922;7.966;2024-03-07T11:08:16;23.55;;;12.55;;
70132;SDS011;57495;49.922;7.966;2024-03-07T11:10:19;22.98;;;12.13;;
70132;SDS011;57495;49.922;7.966;2024-03-07T11:12:21;22.80;;;12.10;;
70132;SDS011;57495;49.922;7.966;2024-03-07T11:14:27;21.92;;;11.60;;
70132;SDS011;57495;49.922;7.966;2024-03-07T11:16:29;20.75;;;12.00;;
70132;SDS011;57495;49.922;7.966;2024-03-07T11:18:31;21.20;;;12.07;;
70132;SDS011;57495;49.922;7.966;2024-03-07T11:20:35;21.50;;;11.82;;
70132;SDS011;57495;49.922;7.966;2024-03-07T11:22:37;23.40;;;11.40;;
70132;SDS011;57495;49.922;7.966;2024-03-07T11:24:38;20.33;;;11.63;;
70132;SDS011;57495;49.922;7.966;2024-03-07T11:26:40;23.88;;;12.43;;
70132;SDS011;57495;49.922;7.966;2024-03-07T11:28:41;22.15;;;11.70;;
70132;SDS011;57495;49.922;7.966;2024-03-07T11:30:43;20.60;;;12.90;;
70132;SDS011;57495;49.922;7.966;2024-03-07T11:32:44;20.23;;;11.65;;
70132;SDS011;57495;49.922;7.966;2024-03-07T11:34:48;21.85;;;12.13;;
70132;SDS011;57495;49.922;7.966;2024-03-07T11:36:51;20.70;;;11.73;;
70132;SDS011;57495;49.922;7.966;2024-03-07T11:38:55;20.30;;;11.43;;
70132;SDS011;57495;49.922;7.966;2024-03-07T11:40:58;21.02;;;12.15;;
70132;SDS011;57495;49.922;7.966;2024-03-07T11:43:02;20.42;;;12.15;;
70132;SDS011;57495;49.922;7.966;2024-03-07T11:45:06;22.13;;;11.23;;
70132;SDS011;57495;49.922;7.966;2024-03-07T11:47:07;21.83;;;11.52;;
70132;SDS011;57495;49.922;7.966;2024-03-07T11:49:08;19.70;;;11.67;;
70132;SDS011;57495;49.922;7.966;2024-03-07T11:51:14;22.25;;;12.55;;
70132;SDS011;57495;49.922;7.966;2024-03-07T11:53:26;21.63;;;12.38;;
70132;SDS011;57495;49.922;7.966;2024-03-07T11:55:28;17.55;;;10.75;;